sensor_id;sensor_type;location;lat;lon;timestamp;P1;durP1;ratioP1;P2;durP2;ratioP2
2031;SDS011;27625;50.422;7.944;2022-11-06T00:02:35;15.60;;;9.50;;
2031;SDS011;27625;50.422;7.944;2022-11-06T00:05:02;19.10;;;11.33;;
2031;SDS011;27625;50.422;7.944;2022-11-06T00:07:44;17.33;;;11.13;;
2031;SDS011;27625;50.422;7.944;2022-11-06T00:10:11;14.83;;;10.80;;
2031;SDS011;27625;50.422;7.944;2022-11-06T00:12:38;18.27;;;10.70;;
2031;SDS011;27625;50.422;7.944;2022-11-06T00:15:06;14.03;;;10.53;;
2031;SDS011;27625;50.422;7.944;2022-11-06T00:17:35;15.10;;;10.40;;
2031;SDS011;27625;50.422;7.944;2022-11-06T00:20:03;15.13;;;10.80;;
2031;SDS011;27625;50.422;7.944;2022-11-06T00:22:32;17.43;;;11.40;;
2031;SDS011;27625;50.422;7.944;2022-11-06T00:24:59;11.97;;;10.00;;
2031;SDS011;27625;50.422;7.944;2022-11-06T00:27:27;15.90;;;9.83;;
2031;SDS011;27625;50.422;7.944;2022-11-06T00:29:54;16.23;;;10.93;;
2031;SDS011;27625;50.422;7.944;2022-11-06T00:32:21;13.93;;;10.63;;
2031;SDS011;27625;50.422;7.944;2022-11-06T00:34:50;13.70;;;10.33;;
2031;SDS011;27625;50.422;7.944;2022-11-06T00:37:17;18.63;;;10.40;;
2031;SDS011;27625;50.422;7.944;2022-11-06T00:39:44;14.60;;;11.70;;
2031;SDS011;27625;50.422;7.944;2022-11-06T00:42:11;16.73;;;10.90;;
2031;SDS011;27625;50.422;7.944;2022-11-06T00:44:38;16.93;;;11.00;;
2031;SDS011;27625;50.422;7.944;2022-11-06T00:47:05;20.30;;;10.77;;
2031;SDS011;27625;50.422;7.944;2022-11-06T00:49:32;16.43;;;11.30;;
2031;SDS011;27625;50.422;7.944;2022-11-06T00:52:01;19.63;;;11.07;;
2031;SDS011;27625;50.422;7.944;2022-11-06T00:54:27;18.47;;;11.97;;
2031;SDS011;27625;50.422;7.944;2022-11-06T00:56:54;18.73;;;11.87;;
2031;SDS011;27625;50.422;7.944;2022-11-06T00:59:21;16.43;;;10.97;;
2031;SDS011;27625;50.422;7.944;2022-11-06T01:01:49;14.60;;;10.73;;
2031;SDS011;27625;50.422;7.944;2022-11-06T01:04:16;16.03;;;11.63;;
2031;SDS011;27625;50.422;7.944;2022-11-06T01:06:45;19.17;;;11.87;;
2031;SDS011;27625;50.422;7.944;2022-11-06T01:09:15;17.43;;;10.93;;
2031;SDS011;27625;50.422;7.944;2022-11-06T01:11:44;15.60;;;10.77;;
2031;SDS011;27625;50.422;7.944;2022-11-06T01:14:12;14.50;;;11.43;;
2031;SDS011;27625;50.422;7.944;2022-11-06T01:16:40;19.20;;;11.43;;
2031;SDS011;27625;50.422;7.944;2022-11-06T01:19:09;14.03;;;11.00;;
2031;SDS011;27625;50.422;7.944;2022-11-06T01:21:38;14.00;;;11.13;;
2031;SDS011;27625;50.422;7.944;2022-11-06T01:24:08;14.90;;;12.40;;
2031;SDS011;27625;50.422;7.944;2022-11-06T01:26:38;17.20;;;12.20;;
2031;SDS011;27625;50.422;7.944;2022-11-06T01:29:06;15.63;;;11.37;;
2031;SDS011;27625;50.422;7.944;2022-11-06T01:31:34;16.73;;;12.17;;
2031;SDS011;27625;50.422;7.944;2022-11-06T01:34:02;15.57;;;11.47;;
2031;SDS011;27625;50.422;7.944;2022-11-06T01:36:29;14.93;;;11.17;;
2031;SDS011;27625;50.422;7.944;2022-11-06T01:38:58;15.73;;;12.47;;
2031;SDS011;27625;50.422;7.944;2022-11-06T01:41:27;18.13;;;11.97;;
2031;SDS011;27625;50.422;7.944;2022-11-06T01:43:57;13.93;;;11.57;;
2031;SDS011;27625;50.422;7.944;2022-11-06T01:46:26;16.37;;;11.00;;
2031;SDS011;27625;50.422;7.944;2022-11-06T01:48:56;17.07;;;11.60;;
2031;SDS011;27625;50.422;7.944;2022-11-06T01:51:25;14.80;;;11.53;;
2031;SDS011;27625;50.422;7.944;2022-11-06T01:53:54;16.27;;;12.40;;
2031;SDS011;27625;50.422;7.944;2022-11-06T01:56:21;18.27;;;12.30;;
2031;SDS011;27625;50.422;7.944;2022-11-06T01:58:50;14.90;;;11.23;;
2031;SDS011;27625;50.422;7.944;2022-11-06T02:01:19;16.67;;;11.37;;
2031;SDS011;27625;50.422;7.944;2022-11-06T02:03:48;14.20;;;11.27;;
2031;SDS011;27625;50.422;7.944;2022-11-06T02:06:17;18.53;;;12.47;;
2031;SDS011;27625;50.422;7.944;2022-11-06T02:08:44;15.67;;;12.07;;
2031;SDS011;27625;50.422;7.944;2022-11-06T02:11:11;14.87;;;11.40;;
2031;SDS011;27625;50.422;7.944;2022-11-06T02:13:41;13.03;;;10.17;;
2031;SDS011;27625;50.422;7.944;2022-11-06T02:16:14;16.27;;;10.83;;
2031;SDS011;27625;50.422;7.944;2022-11-06T02:18:57;13.27;;;9.83;;
2031;SDS011;27625;50.422;7.944;2022-11-06T02:21:46;17.90;;;10.10;;
2031;SDS011;27625;50.422;7.944;2022-11-06T02:24:29;15.23;;;10.33;;
2031;SDS011;27625;50.422;7.944;2022-11-06T02:27:08;15.80;;;10.20;;
2031;SDS011;27625;50.422;7.944;2022-11-06T02:29:39;12.70;;;9.67;;
2031;SDS011;27625;50.422;7.944;2022-11-06T02:32:13;13.27;;;10.37;;
2031;SDS011;27625;50.422;7.944;2022-11-06T02:34:44;12.13;;;9.47;;
2031;SDS011;27625;50.422;7.944;2022-11-06T02:37:12;13.60;;;9.97;;
2031;SDS011;27625;50.422;7.944;2022-11-06T02:39:43;11.70;;;10.17;;
2031;SDS011;27625;50.422;7.944;2022-11-06T02:42:13;14.30;;;9.30;;
2031;SDS011;27625;50.422;7.944;2022-11-06T02:44:42;12.27;;;10.07;;
2031;SDS011;27625;50.422;7.944;2022-11-06T02:47:10;17.23;;;10.47;;
2031;SDS011;27625;50.422;7.944;2022-11-06T02:49:39;13.10;;;9.97;;
2031;SDS011;27625;50.422;7.944;2022-11-06T02:52:09;17.40;;;11.50;;
2031;SDS011;27625;50.422;7.944;2022-11-06T02:54:40;18.10;;;12.33;;
2031;SDS011;27625;50.422;7.944;2022-11-06T02:57:09;14.37;;;10.97;;
2031;SDS011;27625;50.422;7.944;2022-11-06T02:59:41;12.50;;;10.20;;
2031;SDS011;27625;50.422;7.944;2022-11-06T03:02:12;17.13;;;11.10;;
2031;SDS011;27625;50.422;7.944;2022-11-06T03:04:44;15.30;;;10.87;;
2031;SDS011;27625;50.422;7.944;2022-11-06T03:07:14;15.03;;;10.63;;
2031;SDS011;27625;50.422;7.944;2022-11-06T03:09:43;16.67;;;11.10;;
2031;SDS011;27625;50.422;7.944;2022-11-06T03:12:15;13.90;;;11.10;;
2031;SDS011;27625;50.422;7.944;2022-11-06T03:14:47;14.10;;;10.37;;
2031;SDS011;27625;50.422;7.944;2022-11-06T03:17:18;12.33;;;10.30;;
2031;SDS011;27625;50.422;7.944;2022-11-06T03:19:47;14.10;;;11.17;;
2031;SDS011;27625;50.422;7.944;2022-11-06T03:22:18;14.13;;;11.17;;
2031;SDS011;27625;50.422;7.944;2022-11-06T03:24:50;15.70;;;11.03;;
2031;SDS011;27625;50.422;7.944;2022-11-06T03:27:24;12.00;;;10.00;;
2031;SDS011;27625;50.422;7.944;2022-11-06T03:29:56;16.23;;;10.73;;
2031;SDS011;27625;50.422;7.944;2022-11-06T03:32:28;12.77;;;9.67;;
2031;SDS011;27625;50.422;7.944;2022-11-06T03:34:58;14.47;;;10.20;;
2031;SDS011;27625;50.422;7.944;2022-11-06T03:37:31;16.13;;;10.30;;
2031;SDS011;27625;50.422;7.944;2022-11-06T03:40:00;15.07;;;10.40;;
2031;SDS011;27625;50.422;7.944;2022-11-06T03:42:30;13.57;;;10.67;;
2031;SDS011;27625;50.422;7.944;2022-11-06T03:44:59;14.93;;;10.10;;
2031;SDS011;27625;50.422;7.944;2022-11-06T03:47:30;15.30;;;11.20;;
2031;SDS011;27625;50.422;7.944;2022-11-06T03:50:01;16.93;;;11.43;;
2031;SDS011;27625;50.422;7.944;2022-11-06T03:52:31;15.93;;;11.10;;
2031;SDS011;27625;50.422;7.944;2022-11-06T03:55:00;17.50;;;10.90;;
2031;SDS011;27625;50.422;7.944;2022-11-06T03:57:32;15.67;;;10.83;;
2031;SDS011;27625;50.422;7.944;2022-11-06T04:00:04;15.17;;;10.60;;
2031;SDS011;27625;50.422;7.944;2022-11-06T04:02:33;15.87;;;10.93;;
2031;SDS011;27625;50.422;7.944;2022-11-06T04:05:03;12.23;;;9.90;;
2031;SDS011;27625;50.422;7.944;2022-11-06T04:07:33;15.73;;;10.70;;
2031;SDS011;27625;50.422;7.944;2022-11-06T04:10:03;13.10;;;9.53;;
2031;SDS011;27625;50.422;7.944;2022-11-06T04:12:51;15.70;;;10.67;;
2031;SDS011;27625;50.422;7.944;2022-11-06T04:15:32;17.43;;;10.80;;
2031;SDS011;27625;50.422;7.944;2022-11-06T04:18:02;17.87;;;11.23;;
2031;SDS011;27625;50.422;7.944;2022-11-06T04:20:32;15.37;;;10.80;;
2031;SDS011;27625;50.422;7.944;2022-11-06T04:23:23;15.70;;;11.10;;
2031;SDS011;27625;50.422;7.944;2022-11-06T04:25:54;15.40;;;10.63;;
2031;SDS011;27625;50.422;7.944;2022-11-06T04:28:45;13.60;;;9.93;;
2031;SDS011;27625;50.422;7.944;2022-11-06T04:31:16;12.80;;;9.87;;
2031;SDS011;27625;50.422;7.944;2022-11-06T04:33:47;17.40;;;11.17;;
2031;SDS011;27625;50.422;7.944;2022-11-06T04:36:19;12.93;;;10.43;;
2031;SDS011;27625;50.422;7.944;2022-11-06T04:38:50;16.57;;;10.50;;
2031;SDS011;27625;50.422;7.944;2022-11-06T04:41:23;16.53;;;10.50;;
2031;SDS011;27625;50.422;7.944;2022-11-06T04:44:01;14.50;;;10.80;;
2031;SDS011;27625;50.422;7.944;2022-11-06T04:46:32;13.03;;;10.30;;
2031;SDS011;27625;50.422;7.944;2022-11-06T04:49:01;15.77;;;11.47;;
2031;SDS011;27625;50.422;7.944;2022-11-06T04:51:29;13.57;;;10.03;;
2031;SDS011;27625;50.422;7.944;2022-11-06T04:53:59;13.43;;;9.60;;
2031;SDS011;27625;50.422;7.944;2022-11-06T04:56:28;12.33;;;9.00;;
2031;SDS011;27625;50.422;7.944;2022-11-06T04:58:55;16.00;;;9.40;;
2031;SDS011;27625;50.422;7.944;2022-11-06T05:01:24;18.77;;;9.03;;
2031;SDS011;27625;50.422;7.944;2022-11-06T05:03:51;14.73;;;9.00;;
2031;SDS011;27625;50.422;7.944;2022-11-06T05:06:18;11.93;;;9.40;;
2031;SDS011;27625;50.422;7.944;2022-11-06T05:08:45;12.80;;;9.13;;
2031;SDS011;27625;50.422;7.944;2022-11-06T05:11:11;10.23;;;9.13;;
2031;SDS011;27625;50.422;7.944;2022-11-06T05:13:38;13.90;;;8.97;;
2031;SDS011;27625;50.422;7.944;2022-11-06T05:16:05;10.63;;;8.67;;
2031;SDS011;27625;50.422;7.944;2022-11-06T05:18:34;12.07;;;8.80;;
2031;SDS011;27625;50.422;7.944;2022-11-06T05:21:02;15.43;;;10.10;;
2031;SDS011;27625;50.422;7.944;2022-11-06T05:23:46;13.07;;;9.37;;
2031;SDS011;27625;50.422;7.944;2022-11-06T05:26:13;12.10;;;8.20;;
2031;SDS011;27625;50.422;7.944;2022-11-06T05:28:40;12.57;;;8.50;;
2031;SDS011;27625;50.422;7.944;2022-11-06T05:31:07;12.37;;;9.07;;
2031;SDS011;27625;50.422;7.944;2022-11-06T05:33:36;13.43;;;10.10;;
2031;SDS011;27625;50.422;7.944;2022-11-06T05:36:03;15.03;;;8.90;;
2031;SDS011;27625;50.422;7.944;2022-11-06T05:38:31;12.10;;;8.70;;
2031;SDS011;27625;50.422;7.944;2022-11-06T05:40:58;15.60;;;9.73;;
2031;SDS011;27625;50.422;7.944;2022-11-06T05:43:25;13.40;;;9.67;;
2031;SDS011;27625;50.422;7.944;2022-11-06T05:45:51;14.97;;;8.70;;
2031;SDS011;27625;50.422;7.944;2022-11-06T05:48:19;10.70;;;8.67;;
2031;SDS011;27625;50.422;7.944;2022-11-06T05:50:47;11.33;;;8.07;;
2031;SDS011;27625;50.422;7.944;2022-11-06T05:53:14;11.63;;;7.77;;
2031;SDS011;27625;50.422;7.944;2022-11-06T05:55:41;13.53;;;9.30;;
2031;SDS011;27625;50.422;7.944;2022-11-06T05:58:08;10.80;;;8.03;;
2031;SDS011;27625;50.422;7.944;2022-11-06T06:00:35;10.63;;;8.13;;
2031;SDS011;27625;50.422;7.944;2022-11-06T06:03:01;14.10;;;9.00;;
2031;SDS011;27625;50.422;7.944;2022-11-06T06:05:28;12.87;;;9.20;;
2031;SDS011;27625;50.422;7.944;2022-11-06T06:07:56;11.37;;;9.17;;
2031;SDS011;27625;50.422;7.944;2022-11-06T06:10:23;12.43;;;9.20;;
2031;SDS011;27625;50.422;7.944;2022-11-06T06:12:49;12.27;;;8.00;;
2031;SDS011;27625;50.422;7.944;2022-11-06T06:15:17;13.43;;;8.93;;
2031;SDS011;27625;50.422;7.944;2022-11-06T06:17:44;12.67;;;8.03;;
2031;SDS011;27625;50.422;7.944;2022-11-06T06:20:11;12.27;;;9.10;;
2031;SDS011;27625;50.422;7.944;2022-11-06T06:22:38;16.53;;;9.60;;
2031;SDS011;27625;50.422;7.944;2022-11-06T06:25:06;13.67;;;9.93;;
2031;SDS011;27625;50.422;7.944;2022-11-06T06:27:34;10.93;;;8.30;;
2031;SDS011;27625;50.422;7.944;2022-11-06T06:30:03;12.77;;;9.70;;
2031;SDS011;27625;50.422;7.944;2022-11-06T06:32:31;17.13;;;10.87;;
2031;SDS011;27625;50.422;7.944;2022-11-06T06:34:58;29.00;;;12.43;;
2031;SDS011;27625;50.422;7.944;2022-11-06T06:37:25;72.80;;;15.10;;
2031;SDS011;27625;50.422;7.944;2022-11-06T06:39:52;73.90;;;13.73;;
2031;SDS011;27625;50.422;7.944;2022-11-06T06:42:20;16.10;;;9.63;;
2031;SDS011;27625;50.422;7.944;2022-11-06T06:44:47;40.33;;;12.17;;
2031;SDS011;27625;50.422;7.944;2022-11-06T06:47:14;99.30;;;14.63;;
2031;SDS011;27625;50.422;7.944;2022-11-06T06:49:42;59.60;;;12.60;;
2031;SDS011;27625;50.422;7.944;2022-11-06T06:52:09;105.33;;;12.90;;
2031;SDS011;27625;50.422;7.944;2022-11-06T06:54:37;92.53;;;14.90;;
2031;SDS011;27625;50.422;7.944;2022-11-06T06:57:05;43.80;;;13.07;;
2031;SDS011;27625;50.422;7.944;2022-11-06T06:59:33;17.50;;;8.90;;
2031;SDS011;27625;50.422;7.944;2022-11-06T07:02:00;38.30;;;10.33;;
2031;SDS011;27625;50.422;7.944;2022-11-06T07:04:27;17.47;;;9.20;;
2031;SDS011;27625;50.422;7.944;2022-11-06T07:06:54;27.80;;;7.53;;
2031;SDS011;27625;50.422;7.944;2022-11-06T07:09:21;9.83;;;7.73;;
2031;SDS011;27625;50.422;7.944;2022-11-06T07:11:48;10.90;;;7.30;;
2031;SDS011;27625;50.422;7.944;2022-11-06T07:14:15;8.30;;;6.90;;
2031;SDS011;27625;50.422;7.944;2022-11-06T07:16:44;8.57;;;7.30;;
2031;SDS011;27625;50.422;7.944;2022-11-06T07:19:11;9.60;;;7.00;;
2031;SDS011;27625;50.422;7.944;2022-11-06T07:21:37;11.10;;;8.93;;
2031;SDS011;27625;50.422;7.944;2022-11-06T07:24:04;13.00;;;8.33;;
2031;SDS011;27625;50.422;7.944;2022-11-06T07:26:31;11.30;;;8.50;;
2031;SDS011;27625;50.422;7.944;2022-11-06T07:28:59;12.03;;;8.40;;
2031;SDS011;27625;50.422;7.944;2022-11-06T07:31:25;18.43;;;10.67;;
2031;SDS011;27625;50.422;7.944;2022-11-06T07:33:54;12.27;;;9.33;;
2031;SDS011;27625;50.422;7.944;2022-11-06T07:36:21;14.37;;;9.23;;
2031;SDS011;27625;50.422;7.944;2022-11-06T07:38:48;12.93;;;9.70;;
2031;SDS011;27625;50.422;7.944;2022-11-06T07:41:15;13.73;;;10.03;;
2031;SDS011;27625;50.422;7.944;2022-11-06T07:43:42;12.07;;;9.20;;
2031;SDS011;27625;50.422;7.944;2022-11-06T07:46:10;12.40;;;9.13;;
2031;SDS011;27625;50.422;7.944;2022-11-06T07:48:38;14.30;;;9.23;;
2031;SDS011;27625;50.422;7.944;2022-11-06T07:51:07;12.70;;;9.17;;
2031;SDS011;27625;50.422;7.944;2022-11-06T07:53:35;14.27;;;10.33;;
2031;SDS011;27625;50.422;7.944;2022-11-06T07:56:03;14.63;;;9.43;;
2031;SDS011;27625;50.422;7.944;2022-11-06T07:58:30;13.83;;;8.97;;
2031;SDS011;27625;50.422;7.944;2022-11-06T08:00:59;12.73;;;10.00;;
2031;SDS011;27625;50.422;7.944;2022-11-06T08:03:26;12.53;;;9.20;;
2031;SDS011;27625;50.422;7.944;2022-11-06T08:05:54;18.50;;;9.70;;
2031;SDS011;27625;50.422;7.944;2022-11-06T08:08:23;13.50;;;8.90;;
2031;SDS011;27625;50.422;7.944;2022-11-06T08:10:50;16.80;;;10.13;;
2031;SDS011;27625;50.422;7.944;2022-11-06T08:13:18;12.30;;;9.60;;
2031;SDS011;27625;50.422;7.944;2022-11-06T08:15:46;13.03;;;9.47;;
2031;SDS011;27625;50.422;7.944;2022-11-06T08:18:13;14.20;;;9.83;;
2031;SDS011;27625;50.422;7.944;2022-11-06T08:20:40;12.80;;;9.33;;
2031;SDS011;27625;50.422;7.944;2022-11-06T08:23:08;13.27;;;9.13;;
2031;SDS011;27625;50.422;7.944;2022-11-06T08:25:38;15.40;;;9.03;;
2031;SDS011;27625;50.422;7.944;2022-11-06T08:28:06;11.20;;;8.70;;
2031;SDS011;27625;50.422;7.944;2022-11-06T08:30:34;12.00;;;8.60;;
2031;SDS011;27625;50.422;7.944;2022-11-06T08:33:01;13.57;;;9.00;;
2031;SDS011;27625;50.422;7.944;2022-11-06T08:35:28;13.00;;;8.80;;
2031;SDS011;27625;50.422;7.944;2022-11-06T08:37:55;12.17;;;8.90;;
2031;SDS011;27625;50.422;7.944;2022-11-06T08:40:22;14.03;;;8.40;;
2031;SDS011;27625;50.422;7.944;2022-11-06T08:42:51;11.00;;;8.60;;
2031;SDS011;27625;50.422;7.944;2022-11-06T08:45:18;14.83;;;8.50;;
2031;SDS011;27625;50.422;7.944;2022-11-06T08:47:45;10.90;;;7.73;;
2031;SDS011;27625;50.422;7.944;2022-11-06T08:50:12;12.90;;;8.27;;
2031;SDS011;27625;50.422;7.944;2022-11-06T08:52:39;10.17;;;8.17;;
2031;SDS011;27625;50.422;7.944;2022-11-06T08:55:06;13.83;;;8.73;;
2031;SDS011;27625;50.422;7.944;2022-11-06T08:57:33;14.20;;;8.93;;
2031;SDS011;27625;50.422;7.944;2022-11-06T09:00:01;12.67;;;8.30;;
2031;SDS011;27625;50.422;7.944;2022-11-06T09:02:28;14.40;;;8.33;;
2031;SDS011;27625;50.422;7.944;2022-11-06T09:04:56;13.10;;;8.50;;
2031;SDS011;27625;50.422;7.944;2022-11-06T09:07:23;12.23;;;8.27;;
2031;SDS011;27625;50.422;7.944;2022-11-06T09:09:50;13.97;;;8.07;;
2031;SDS011;27625;50.422;7.944;2022-11-06T09:12:17;10.70;;;7.83;;
2031;SDS011;27625;50.422;7.944;2022-11-06T09:14:43;11.37;;;8.53;;
2031;SDS011;27625;50.422;7.944;2022-11-06T09:17:12;9.83;;;7.80;;
2031;SDS011;27625;50.422;7.944;2022-11-06T09:19:39;13.50;;;8.40;;
2031;SDS011;27625;50.422;7.944;2022-11-06T09:22:06;10.53;;;7.77;;
2031;SDS011;27625;50.422;7.944;2022-11-06T09:24:33;9.73;;;7.20;;
2031;SDS011;27625;50.422;7.944;2022-11-06T09:27:00;11.17;;;7.20;;
2031;SDS011;27625;50.422;7.944;2022-11-06T09:29:27;13.50;;;7.70;;
2031;SDS011;27625;50.422;7.944;2022-11-06T09:31:54;10.00;;;7.37;;
2031;SDS011;27625;50.422;7.944;2022-11-06T09:34:22;8.50;;;6.50;;
2031;SDS011;27625;50.422;7.944;2022-11-06T09:36:49;8.47;;;6.30;;
2031;SDS011;27625;50.422;7.944;2022-11-06T09:39:16;8.43;;;6.20;;
2031;SDS011;27625;50.422;7.944;2022-11-06T09:41:45;12.20;;;5.30;;
2031;SDS011;27625;50.422;7.944;2022-11-06T09:44:24;7.03;;;5.20;;
2031;SDS011;27625;50.422;7.944;2022-11-06T09:46:57;6.73;;;4.97;;
2031;SDS011;27625;50.422;7.944;2022-11-06T09:49:29;11.17;;;5.60;;
2031;SDS011;27625;50.422;7.944;2022-11-06T09:52:00;7.03;;;4.87;;
2031;SDS011;27625;50.422;7.944;2022-11-06T09:54:30;7.07;;;4.43;;
2031;SDS011;27625;50.422;7.944;2022-11-06T09:57:00;7.40;;;4.63;;
2031;SDS011;27625;50.422;7.944;2022-11-06T09:59:28;10.37;;;4.80;;
2031;SDS011;27625;50.422;7.944;2022-11-06T10:01:57;8.57;;;5.10;;
2031;SDS011;27625;50.422;7.944;2022-11-06T10:04:37;11.77;;;6.17;;
2031;SDS011;27625;50.422;7.944;2022-11-06T10:07:08;11.23;;;6.20;;
2031;SDS011;27625;50.422;7.944;2022-11-06T10:09:45;10.53;;;7.73;;
2031;SDS011;27625;50.422;7.944;2022-11-06T10:12:12;11.80;;;6.40;;
2031;SDS011;27625;50.422;7.944;2022-11-06T10:14:52;8.87;;;5.63;;
2031;SDS011;27625;50.422;7.944;2022-11-06T10:17:33;10.77;;;7.43;;
2031;SDS011;27625;50.422;7.944;2022-11-06T10:20:11;8.40;;;5.33;;
2031;SDS011;27625;50.422;7.944;2022-11-06T10:22:45;8.77;;;5.70;;
2031;SDS011;27625;50.422;7.944;2022-11-06T10:25:18;9.60;;;5.80;;
2031;SDS011;27625;50.422;7.944;2022-11-06T10:27:50;9.90;;;7.40;;
2031;SDS011;27625;50.422;7.944;2022-11-06T10:30:23;6.53;;;5.20;;
2031;SDS011;27625;50.422;7.944;2022-11-06T10:32:57;6.30;;;5.20;;
2031;SDS011;27625;50.422;7.944;2022-11-06T10:35:35;10.23;;;5.40;;
2031;SDS011;27625;50.422;7.944;2022-11-06T10:38:06;9.70;;;5.03;;
2031;SDS011;27625;50.422;7.944;2022-11-06T10:40:39;8.00;;;5.27;;
2031;SDS011;27625;50.422;7.944;2022-11-06T10:43:13;7.73;;;4.80;;
2031;SDS011;27625;50.422;7.944;2022-11-06T10:45:48;6.47;;;4.17;;
2031;SDS011;27625;50.422;7.944;2022-11-06T10:48:21;7.60;;;5.13;;
2031;SDS011;27625;50.422;7.944;2022-11-06T10:50:59;7.00;;;5.10;;
2031;SDS011;27625;50.422;7.944;2022-11-06T10:53:34;7.87;;;4.90;;
2031;SDS011;27625;50.422;7.944;2022-11-06T10:56:09;140.47;;;12.67;;
2031;SDS011;27625;50.422;7.944;2022-11-06T10:58:41;7.23;;;5.13;;
2031;SDS011;27625;50.422;7.944;2022-11-06T11:01:10;6.27;;;4.10;;
2031;SDS011;27625;50.422;7.944;2022-11-06T11:03:40;6.50;;;4.40;;
2031;SDS011;27625;50.422;7.944;2022-11-06T11:06:09;7.93;;;4.00;;
2031;SDS011;27625;50.422;7.944;2022-11-06T11:08:37;9.77;;;4.27;;
2031;SDS011;27625;50.422;7.944;2022-11-06T11:11:17;4.10;;;3.33;;
2031;SDS011;27625;50.422;7.944;2022-11-06T11:13:49;9.97;;;4.00;;
2031;SDS011;27625;50.422;7.944;2022-11-06T11:16:17;35.77;;;23.33;;
2031;SDS011;27625;50.422;7.944;2022-11-06T11:18:46;16.37;;;11.70;;
2031;SDS011;27625;50.422;7.944;2022-11-06T11:21:19;13.33;;;9.07;;
2031;SDS011;27625;50.422;7.944;2022-11-06T11:24:07;10.10;;;8.10;;
2031;SDS011;27625;50.422;7.944;2022-11-06T11:26:36;13.53;;;7.00;;
2031;SDS011;27625;50.422;7.944;2022-11-06T11:29:14;13.03;;;10.60;;
2031;SDS011;27625;50.422;7.944;2022-11-06T11:31:44;45.73;;;31.87;;
2031;SDS011;27625;50.422;7.944;2022-11-06T11:34:16;7.13;;;5.60;;
2031;SDS011;27625;50.422;7.944;2022-11-06T11:36:57;11.13;;;8.93;;
2031;SDS011;27625;50.422;7.944;2022-11-06T11:39:26;7.97;;;5.50;;
2031;SDS011;27625;50.422;7.944;2022-11-06T11:45:05;9.50;;;6.40;;
2031;SDS011;27625;50.422;7.944;2022-11-06T11:47:37;7.10;;;5.03;;
2031;SDS011;27625;50.422;7.944;2022-11-06T11:53:03;8.60;;;5.90;;
2031;SDS011;27625;50.422;7.944;2022-11-06T11:55:35;9.70;;;5.63;;
2031;SDS011;27625;50.422;7.944;2022-11-06T11:58:05;7.53;;;5.17;;
2031;SDS011;27625;50.422;7.944;2022-11-06T12:00:47;14.53;;;10.23;;
2031;SDS011;27625;50.422;7.944;2022-11-06T12:03:16;10.77;;;6.90;;
2031;SDS011;27625;50.422;7.944;2022-11-06T12:05:43;6.30;;;4.87;;
2031;SDS011;27625;50.422;7.944;2022-11-06T12:08:13;9.20;;;6.73;;
2031;SDS011;27625;50.422;7.944;2022-11-06T12:10:48;14.57;;;10.93;;
2031;SDS011;27625;50.422;7.944;2022-11-06T12:13:16;14.63;;;11.03;;
2031;SDS011;27625;50.422;7.944;2022-11-06T12:15:45;6.80;;;5.67;;
2031;SDS011;27625;50.422;7.944;2022-11-06T12:18:16;10.27;;;5.80;;
2031;SDS011;27625;50.422;7.944;2022-11-06T12:20:46;8.63;;;5.60;;
2031;SDS011;27625;50.422;7.944;2022-11-06T12:23:19;7.30;;;4.90;;
2031;SDS011;27625;50.422;7.944;2022-11-06T12:25:55;10.03;;;5.60;;
2031;SDS011;27625;50.422;7.944;2022-11-06T12:28:25;6.93;;;5.00;;
2031;SDS011;27625;50.422;7.944;2022-11-06T12:30:56;6.63;;;5.93;;
2031;SDS011;27625;50.422;7.944;2022-11-06T12:33:27;7.30;;;6.10;;
2031;SDS011;27625;50.422;7.944;2022-11-06T12:35:56;7.90;;;5.60;;
2031;SDS011;27625;50.422;7.944;2022-11-06T12:38:28;7.83;;;6.10;;
2031;SDS011;27625;50.422;7.944;2022-11-06T12:41:00;7.53;;;5.50;;
2031;SDS011;27625;50.422;7.944;2022-11-06T12:43:31;8.70;;;5.20;;
2031;SDS011;27625;50.422;7.944;2022-11-06T12:51:59;9.40;;;5.00;;
2031;SDS011;27625;50.422;7.944;2022-11-06T12:54:40;6.13;;;4.40;;
2031;SDS011;27625;50.422;7.944;2022-11-06T12:57:17;7.63;;;5.00;;
2031;SDS011;27625;50.422;7.944;2022-11-06T12:59:51;6.23;;;4.80;;
2031;SDS011;27625;50.422;7.944;2022-11-06T13:02:28;7.37;;;5.20;;
2031;SDS011;27625;50.422;7.944;2022-11-06T13:05:04;6.27;;;5.27;;
2031;SDS011;27625;50.422;7.944;2022-11-06T13:07:44;7.30;;;5.50;;
2031;SDS011;27625;50.422;7.944;2022-11-06T13:10:22;6.17;;;4.97;;
2031;SDS011;27625;50.422;7.944;2022-11-06T13:13:07;7.03;;;5.73;;
2031;SDS011;27625;50.422;7.944;2022-11-06T13:15:43;8.57;;;5.00;;
2031;SDS011;27625;50.422;7.944;2022-11-06T13:18:15;6.57;;;5.67;;
2031;SDS011;27625;50.422;7.944;2022-11-06T13:20:47;17.60;;;6.10;;
2031;SDS011;27625;50.422;7.944;2022-11-06T13:23:19;7.90;;;5.13;;
2031;SDS011;27625;50.422;7.944;2022-11-06T13:25:54;25.03;;;7.27;;
2031;SDS011;27625;50.422;7.944;2022-11-06T13:28:30;7.67;;;5.10;;
2031;SDS011;27625;50.422;7.944;2022-11-06T13:31:00;9.17;;;4.73;;
2031;SDS011;27625;50.422;7.944;2022-11-06T13:33:29;6.93;;;5.17;;
2031;SDS011;27625;50.422;7.944;2022-11-06T13:36:00;11.60;;;5.70;;
2031;SDS011;27625;50.422;7.944;2022-11-06T13:38:28;6.40;;;5.30;;
2031;SDS011;27625;50.422;7.944;2022-11-06T13:40:57;7.77;;;5.90;;
2031;SDS011;27625;50.422;7.944;2022-11-06T13:43:27;8.60;;;6.80;;
2031;SDS011;27625;50.422;7.944;2022-11-06T13:46:02;8.90;;;6.57;;
2031;SDS011;27625;50.422;7.944;2022-11-06T13:48:39;10.67;;;6.67;;
2031;SDS011;27625;50.422;7.944;2022-11-06T13:51:12;8.30;;;6.70;;
2031;SDS011;27625;50.422;7.944;2022-11-06T13:53:47;8.40;;;6.83;;
2031;SDS011;27625;50.422;7.944;2022-11-06T13:56:26;9.63;;;6.50;;
2031;SDS011;27625;50.422;7.944;2022-11-06T13:59:15;11.03;;;6.37;;
2031;SDS011;27625;50.422;7.944;2022-11-06T14:01:52;9.23;;;6.83;;
2031;SDS011;27625;50.422;7.944;2022-11-06T14:07:19;9.70;;;7.23;;
2031;SDS011;27625;50.422;7.944;2022-11-06T14:09:47;9.33;;;7.40;;
2031;SDS011;27625;50.422;7.944;2022-11-06T14:12:16;9.30;;;7.20;;
2031;SDS011;27625;50.422;7.944;2022-11-06T14:14:45;10.73;;;7.20;;
2031;SDS011;27625;50.422;7.944;2022-11-06T14:17:18;9.17;;;7.30;;
2031;SDS011;27625;50.422;7.944;2022-11-06T14:20:00;10.13;;;7.10;;
2031;SDS011;27625;50.422;7.944;2022-11-06T14:22:29;8.87;;;7.57;;
2031;SDS011;27625;50.422;7.944;2022-11-06T14:24:58;9.77;;;6.90;;
2031;SDS011;27625;50.422;7.944;2022-11-06T14:30:38;9.40;;;6.73;;
2031;SDS011;27625;50.422;7.944;2022-11-06T14:33:11;8.80;;;6.77;;
2031;SDS011;27625;50.422;7.944;2022-11-06T14:35:53;8.30;;;6.47;;
2031;SDS011;27625;50.422;7.944;2022-11-06T14:44:27;8.13;;;6.93;;
2031;SDS011;27625;50.422;7.944;2022-11-06T14:46:59;10.63;;;5.90;;
2031;SDS011;27625;50.422;7.944;2022-11-06T14:49:33;8.80;;;6.50;;
2031;SDS011;27625;50.422;7.944;2022-11-06T14:52:02;7.63;;;5.23;;
2031;SDS011;27625;50.422;7.944;2022-11-06T14:54:32;8.00;;;5.70;;
2031;SDS011;27625;50.422;7.944;2022-11-06T14:57:01;9.10;;;5.50;;
2031;SDS011;27625;50.422;7.944;2022-11-06T14:59:31;7.90;;;5.87;;
2031;SDS011;27625;50.422;7.944;2022-11-06T15:02:00;9.40;;;5.80;;
2031;SDS011;27625;50.422;7.944;2022-11-06T15:04:31;6.73;;;5.60;;
2031;SDS011;27625;50.422;7.944;2022-11-06T15:07:05;8.83;;;6.00;;
2031;SDS011;27625;50.422;7.944;2022-11-06T15:09:45;9.27;;;6.07;;
2031;SDS011;27625;50.422;7.944;2022-11-06T15:12:13;9.83;;;5.90;;
2031;SDS011;27625;50.422;7.944;2022-11-06T15:14:54;6.83;;;5.60;;
2031;SDS011;27625;50.422;7.944;2022-11-06T15:17:22;7.00;;;5.70;;
2031;SDS011;27625;50.422;7.944;2022-11-06T15:22:49;7.37;;;6.00;;
2031;SDS011;27625;50.422;7.944;2022-11-06T15:25:23;7.57;;;6.30;;
2031;SDS011;27625;50.422;7.944;2022-11-06T15:27:54;8.80;;;6.40;;
2031;SDS011;27625;50.422;7.944;2022-11-06T15:30:25;8.50;;;5.37;;
2031;SDS011;27625;50.422;7.944;2022-11-06T15:32:52;9.00;;;5.47;;
2031;SDS011;27625;50.422;7.944;2022-11-06T15:35:20;9.20;;;5.57;;